M I D A S
Marine Information and Data Acquisition System
Tripno 1137 of the Zeeleeuw from 2006-07-18 07:02:39 to 2006-07-18 11:51:59
Back to CruiseResearch ActivitiesStationsMapUnderway DataData graphs

EquipmentUnitsComment
TimeDGPSUTC
LatitudeDGPSDM.mWGS84
LongitudeDGPSDM.mWGS84
HeadingGyrodeg 
SOGDGPSknotsSpeed over ground
COGDGPSdegCourse over ground
DepthEcho soundermeters200 kHz
Missing or incorrect values are displayed as -999
Navigation data collected by the RV Zeeleeuw from 2006-07-18 07:03:06 to 2006-07-18 12:03:19
Time Latitude Longitude Heading SOG COG Depth
2006-07-18 07:04:13 51°13.611 2°56.03 112.9 4 290 -999
2006-07-18 07:05:13 51°13.644 2°55.914 118.7 5.2 296 -999
2006-07-18 07:06:13 51°13.683 2°55.793 117.5 4.5 296 -999
2006-07-18 07:07:12 51°13.701 2°55.716 97.9 1.9 283 17.8
2006-07-18 07:08:13 51°13.708 2°55.709 52.7 0.9 30 14.3
2006-07-18 07:09:13 51°13.748 2°55.707 345.6 4 340 12.1
2006-07-18 07:10:13 51°13.832 2°55.637 336 6.6 334 12.7
2006-07-18 07:11:13 51°13.938 2°55.555 338 7.3 335 12.9
2006-07-18 07:12:13 51°14.046 2°55.476 340.5 6.5 337 12.4
2006-07-18 07:13:13 51°14.142 2°55.405 335.9 6.6 332 12.4
2006-07-18 07:14:12 51°14.237 2°55.295 322.6 8.1 319 12.4
2006-07-18 07:15:12 51°14.34 2°55.111 312.3 9.7 307 12.5
2006-07-18 07:16:13 51°14.442 2°54.905 307.7 9.7 307 12.8
2006-07-18 07:17:12 51°14.53 2°54.685 296 10.6 295 12.1
2006-07-18 07:18:13 51°14.618 2°54.415 297.5 11.7 299 11.9
2006-07-18 07:19:13 51°14.724 2°54.15 300.7 11.9 303 11.8
2006-07-18 07:20:13 51°14.829 2°53.879 300.2 12.1 301 11.3
2006-07-18 07:21:13 51°14.91 2°53.59 294 12 295 11.3
2006-07-18 07:22:12 51°15.009 2°53.317 298.4 12.1 298 11.8
2006-07-18 07:23:13 51°15.102 2°53.026 299.8 12.3 299 12.1
2006-07-18 07:24:13 51°15.192 2°52.738 295.9 12.1 296 12.5
2006-07-18 07:25:13 51°15.283 2°52.452 296.8 12.1 297 12.9
2006-07-18 07:26:13 51°15.371 2°52.167 295.5 12 296 13.5
2006-07-18 07:27:12 51°15.452 2°51.88 294.4 12 295 14
2006-07-18 07:28:13 51°15.522 2°51.58 288.6 11.9 289 14.3
2006-07-18 07:29:13 51°15.603 2°51.289 294.7 12.1 295 14.4
2006-07-18 07:30:12 51°15.686 2°51 294.3 12.2 295 14.6
2006-07-18 07:31:13 51°15.771 2°50.702 293.6 12.1 294 14.6
2006-07-18 07:32:13 51°15.855 2°50.41 293.2 12.1 294 14.3
2006-07-18 07:33:13 51°15.936 2°50.119 292.2 11.9 292 12.3
2006-07-18 07:34:12 51°16.011 2°49.827 293.9 12.2 293 12.3
2006-07-18 07:35:13 51°16.093 2°49.526 294.9 12.2 294 12.9
2006-07-18 07:36:12 51°16.172 2°49.235 293.3 12.1 294 14
2006-07-18 07:37:12 51°16.241 2°48.938 287.3 11.9 288 16.2
2006-07-18 07:38:12 51°16.317 2°48.644 295.4 12 296 17.1
2006-07-18 07:39:13 51°16.404 2°48.353 294.4 12 295 15.2
2006-07-18 07:40:13 51°16.49 2°48.068 294.4 11.9 296 9.2
2006-07-18 07:41:13 51°16.576 2°47.782 293.1 12.1 296 8.8
2006-07-18 07:42:13 51°16.666 2°47.494 292.4 12.1 294 9.8
2006-07-18 07:43:13 51°16.736 2°47.19 289.5 12.3 291 11.4
2006-07-18 07:44:13 51°16.804 2°46.886 288.1 12.1 289 10.4
2006-07-18 07:45:13 51°16.875 2°46.583 289.1 12.1 289 8.7
2006-07-18 07:46:13 51°16.948 2°46.28 289.5 12.4 291 10.8
2006-07-18 07:47:13 51°17.022 2°45.972 290.9 12.4 292 14.1
2006-07-18 07:48:13 51°17.097 2°45.665 290.9 12.4 292 15.1
2006-07-18 07:49:12 51°17.171 2°45.363 290.5 12.4 292 15.4
2006-07-18 07:50:13 51°17.25 2°45.054 290.7 12.3 292 15.9
2006-07-18 07:51:13 51°17.326 2°44.749 291.6 12.4 293 17.8
2006-07-18 07:52:13 51°17.407 2°44.446 293.9 12.4 295 17.7
2006-07-18 07:53:13 51°17.491 2°44.144 292.8 12.4 294 18.4
2006-07-18 07:54:13 51°17.575 2°43.843 292.6 12.4 293 15.1
2006-07-18 07:55:12 51°17.663 2°43.551 297.1 12.4 297 15.2
2006-07-18 07:56:12 51°17.754 2°43.257 296.1 12.4 296 12.2
2006-07-18 07:57:12 51°17.851 2°42.965 296.3 12.5 298 21.9
2006-07-18 07:58:13 51°17.939 2°42.662 294.6 12.4 297 25.1
2006-07-18 07:59:12 51°18.032 2°42.373 296.5 12.5 299 25.8
2006-07-18 08:00:12 51°18.135 2°42.084 299.5 12.6 300 25.1
2006-07-18 08:01:13 51°18.24 2°41.793 299.1 12.4 301 24.3
2006-07-18 08:02:13 51°18.341 2°41.507 297.4 12.3 299 22.7
2006-07-18 08:03:12 51°18.44 2°41.224 299.6 12.4 301 20.7
2006-07-18 08:04:12 51°18.538 2°40.939 297.2 12.1 300 17.2
2006-07-18 08:05:12 51°18.647 2°40.662 299.4 12.4 301 19.9
2006-07-18 08:06:12 51°18.756 2°40.389 301.6 12.3 305 21.4
2006-07-18 08:07:13 51°18.87 2°40.105 298.5 12.5 302 23.8
2006-07-18 08:08:13 51°18.979 2°39.824 297.5 12.5 299 24.6
2006-07-18 08:09:13 51°19.085 2°39.534 298.8 12.8 300 26.6
2006-07-18 08:10:12 51°19.191 2°39.248 299.7 12.8 300 29
2006-07-18 08:11:12 51°19.3 2°38.955 297.9 12.6 296 29.1
2006-07-18 08:12:12 51°19.402 2°38.66 301.9 12.8 302 27.4
2006-07-18 08:13:12 51°19.517 2°38.371 302 12.9 302 24
2006-07-18 08:14:13 51°19.629 2°38.078 301.6 12.6 302 23.4
2006-07-18 08:15:13 51°19.742 2°37.796 304.4 12.6 305 23.2
2006-07-18 08:16:12 51°19.857 2°37.524 303.4 12.6 304 21.3
2006-07-18 08:17:13 51°19.953 2°37.306 303.3 7.7 307 22.8
2006-07-18 08:18:13 51°20.002 2°37.192 286.3 2.5 299 23.1
2006-07-18 08:19:12 51°20.016 2°37.197 245.3 1.1 35 23.1
2006-07-18 08:20:12 51°20.03 2°37.212 239.3 1 32 8.9
2006-07-18 08:21:13 51°20.043 2°37.225 245.1 0.8 32 22.1
2006-07-18 08:22:13 51°20.052 2°37.231 240.3 0.3 9 21.4
2006-07-18 08:23:12 51°20.052 2°37.227 223 0.2 243 21.1
2006-07-18 08:24:13 51°20.048 2°37.225 210 0.2 192 20.8
2006-07-18 08:25:12 51°20.045 2°37.225 204 0.1 179 21.6
2006-07-18 08:26:13 51°20.044 2°37.225 203.2 -999 233 21.8
2006-07-18 08:27:13 51°20.043 2°37.226 204.5 0.1 14 21.6
2006-07-18 08:28:12 51°20.044 2°37.226 203.9 0.1 16 21.4
2006-07-18 08:29:12 51°20.045 2°37.227 200.7 0.1 358 21
2006-07-18 08:30:12 51°20.046 2°37.227 197.6 0.1 29 20.6
2006-07-18 08:31:13 51°20.047 2°37.228 196.6 -999 78 20.6
2006-07-18 08:32:13 51°20.047 2°37.228 196.5 -999 219 20.6
2006-07-18 08:33:13 51°20.046 2°37.228 196.9 0.1 177 20.6
2006-07-18 08:34:13 51°20.044 2°37.228 196.5 0.1 189 20.8
2006-07-18 08:35:13 51°20.043 2°37.228 195.1 0.1 182 21.1
2006-07-18 08:36:12 51°20.041 2°37.228 195.2 0.1 207 21.4
2006-07-18 08:37:12 51°20.04 2°37.228 198.5 0.1 181 21.7
2006-07-18 08:38:13 51°20.04 2°37.228 200.8 0.1 152 21.9
2006-07-18 08:39:13 51°20.04 2°37.227 202.1 -999 266 21.8
2006-07-18 08:40:13 51°20.04 2°37.226 204.6 0.1 306 22
2006-07-18 08:41:13 51°20.041 2°37.225 205.2 -999 245 21.9
2006-07-18 08:42:13 51°20.042 2°37.225 201 -999 56 21.9
2006-07-18 08:43:13 51°20.042 2°37.225 195.3 0.1 24 21.8
2006-07-18 08:44:13 51°20.043 2°37.226 192.4 0.1 312 21.4
2006-07-18 08:45:13 51°20.045 2°37.225 191.2 0.3 288 20.8
2006-07-18 08:46:13 51°20.046 2°37.225 190.3 0.1 297 20.6
2006-07-18 08:47:13 51°20.047 2°37.225 188.5 -999 335 20.5
2006-07-18 08:48:13 51°20.047 2°37.225 185.6 -999 46 20.4
2006-07-18 08:49:12 51°20.047 2°37.225 184.3 -999 158 20.5
2006-07-18 08:50:13 51°20.046 2°37.225 184.7 -999 257 20.5
2006-07-18 08:51:12 51°20.046 2°37.225 185.2 0.1 217 20.8
2006-07-18 08:52:12 51°20.045 2°37.225 184.5 0.1 226 21.3
2006-07-18 08:53:10 51°20.044 2°37.224 183.6 -999 195 21.7
2006-07-18 08:54:13 51°20.043 2°37.224 184 0.1 206 21.8
2006-07-18 08:55:13 51°20.042 2°37.223 185.4 0.1 213 21.9
2006-07-18 08:56:13 51°20.042 2°37.222 184.9 -999 196 21.8
2006-07-18 08:57:13 51°20.041 2°37.221 181.4 -999 230 21.7
2006-07-18 08:58:13 51°20.042 2°37.221 176.7 0.1 338 21.7
2006-07-18 08:59:13 51°20.043 2°37.219 173.5 0.1 334 21.8
2006-07-18 09:00:12 51°20.044 2°37.218 171.8 0.1 332 21.8
2006-07-18 09:01:12 51°20.046 2°37.216 169.6 0.1 334 21.7
2006-07-18 09:02:12 51°20.047 2°37.213 166.9 0.1 316 21.8
2006-07-18 09:03:13 51°20.048 2°37.211 164.2 0.1 283 21.7
2006-07-18 09:04:13 51°20.049 2°37.209 161.1 0.1 292 22
2006-07-18 09:05:13 51°20.049 2°37.208 156.9 -999 250 21.9
2006-07-18 09:06:12 51°20.048 2°37.207 151.6 0.1 192 22
2006-07-18 09:07:12 51°20.048 2°37.207 145.1 0.1 180 22
2006-07-18 09:08:13 51°20.047 2°37.208 137.7 0.1 125 22
2006-07-18 09:09:12 51°20.046 2°37.21 130.6 0.1 103 21.8
2006-07-18 09:10:12 51°20.046 2°37.212 125.7 0.1 139 21.6
2006-07-18 09:11:13 51°20.045 2°37.213 122.9 -999 202 21.8
2006-07-18 09:12:12 51°20.045 2°37.212 122.7 0.1 257 21.9
2006-07-18 09:13:12 51°20.044 2°37.209 123.2 0.1 257 22
2006-07-18 09:14:13 51°20.045 2°37.205 123.4 0.1 267 22
2006-07-18 09:15:13 51°20.045 2°37.201 123.9 0.1 273 21.8
2006-07-18 09:16:13 51°20.044 2°37.198 124.3 0.1 255 22.1
2006-07-18 09:17:12 51°20.043 2°37.195 124.2 0.1 236 22.2
2006-07-18 09:18:13 51°20.042 2°37.193 122.6 -999 263 22.1
2006-07-18 09:19:13 51°20.041 2°37.192 117.5 0.1 217 22.2
2006-07-18 09:20:13 51°20.04 2°37.192 110.6 0.1 186 22.1
2006-07-18 09:21:13 51°20.039 2°37.192 103.9 0.1 177 22.1
2006-07-18 09:22:13 51°20.038 2°37.193 98.5 0.1 169 22.3
2006-07-18 09:23:12 51°20.037 2°37.193 94.9 -999 172 22.2
2006-07-18 09:24:13 51°20.037 2°37.194 92.1 -999 324 22.2
2006-07-18 09:25:13 51°20.036 2°37.193 90.6 0.1 293 22.2
2006-07-18 09:26:13 51°20.034 2°37.191 89.1 0.1 253 21.8
2006-07-18 09:27:12 51°20.033 2°37.19 87.8 0.1 232 21.9
2006-07-18 09:28:13 51°20.032 2°37.188 86.3 0.1 248 21.6
2006-07-18 09:29:13 51°20.031 2°37.187 84.9 0.1 239 22.1
2006-07-18 09:30:13 51°20.029 2°37.186 82.7 0.1 221 21.9
2006-07-18 09:31:13 51°20.028 2°37.185 80.5 0.1 256 21.6
2006-07-18 09:32:13 51°20.026 2°37.184 77.2 -999 253 21.8
2006-07-18 09:33:13 51°20.026 2°37.184 72.8 0.1 168 21.9
2006-07-18 09:34:13 51°20.025 2°37.184 69.2 0.1 181 21.8
2006-07-18 09:35:13 51°20.025 2°37.184 66.6 -999 301 21.8
2006-07-18 09:36:13 51°20.025 2°37.184 65 0.1 330 21.7
2006-07-18 09:37:13 51°20.026 2°37.183 64 0.1 331 21.8
2006-07-18 09:38:13 51°20.026 2°37.182 64.5 0.1 315 21.8
2006-07-18 09:39:13 51°20.027 2°37.182 65.8 -999 340 21.8
2006-07-18 09:40:10 51°20.027 2°37.182 67.3 0.1 16 21.7
2006-07-18 09:41:12 51°20.028 2°37.182 68.9 0.1 27 21.7
2006-07-18 09:42:13 51°20.027 2°37.182 69.5 0.1 353 21.5
2006-07-18 09:43:13 51°20.028 2°37.182 69 0.1 349 21.6
2006-07-18 09:44:13 51°20.028 2°37.182 67.6 -999 58 21.5
2006-07-18 09:45:13 51°20.028 2°37.181 67.4 0.1 325 21.6
2006-07-18 09:46:13 51°20.028 2°37.18 67.5 0.1 5 21.6
2006-07-18 09:47:13 51°20.029 2°37.18 67.6 0.3 354 21.6
2006-07-18 09:48:13 51°20.029 2°37.18 67.7 0.3 351 21.5
2006-07-18 09:49:13 51°20.03 2°37.18 67.2 0.1 10 21.4
2006-07-18 09:50:13 51°20.031 2°37.179 68.1 0.1 1 21.3
2006-07-18 09:51:13 51°20.032 2°37.18 68.9 0.1 12 21.4
2006-07-18 09:52:13 51°20.032 2°37.18 70.4 -999 145 21.4
2006-07-18 09:53:13 51°20.032 2°37.18 71.2 0.1 329 21.4
2006-07-18 09:54:13 51°20.032 2°37.179 71.6 -999 301 21.4
2006-07-18 09:55:13 51°20.032 2°37.177 72.1 0.1 251 21.5
2006-07-18 09:56:13 51°20.032 2°37.177 73 0.3 162 21.4
2006-07-18 09:57:12 51°20.032 2°37.176 73.1 -999 322 21.4
2006-07-18 09:58:13 51°20.032 2°37.176 73.3 -999 85 21.4
2006-07-18 09:59:13 51°20.032 2°37.177 72 -999 82 21.3
2006-07-18 10:00:12 51°20.032 2°37.178 71.1 -999 3 21.4
2006-07-18 10:01:12 51°20.032 2°37.178 70.5 -999 325 21.3
2006-07-18 10:02:13 51°20.032 2°37.177 70.3 -999 167 21.3
2006-07-18 10:03:13 51°20.033 2°37.177 70.8 0.1 342 21.3
2006-07-18 10:04:12 51°20.033 2°37.177 72.2 0.1 352 21.3
2006-07-18 10:05:13 51°20.033 2°37.176 74.1 -999 46 21.3
2006-07-18 10:06:12 51°20.032 2°37.176 76.2 0.1 182 21.4
2006-07-18 10:07:12 51°20.031 2°37.177 76.9 -999 169 21.4
2006-07-18 10:08:13 51°20.031 2°37.177 76.8 -999 190 21.3
2006-07-18 10:09:13 51°20.03 2°37.177 76.9 0.1 162 21.7
2006-07-18 10:10:13 51°20.029 2°37.177 76.4 0.1 97 21.7
2006-07-18 10:11:13 51°20.03 2°37.181 74.8 0.1 83 21.2
2006-07-18 10:12:12 51°20.03 2°37.182 75.4 -999 148 21.1
2006-07-18 10:13:12 51°20.027 2°37.177 80.4 0.4 230 21.6
2006-07-18 10:14:13 51°20.023 2°37.167 85 0.6 237 21.2
2006-07-18 10:15:12 51°20.017 2°37.157 90.5 0.5 230 21.7
2006-07-18 10:16:12 51°20.013 2°37.146 87.8 0.5 237 21.3
2006-07-18 10:17:13 51°20.008 2°37.136 83.9 0.3 134 20.4
2006-07-18 10:18:13 51°19.992 2°37.204 118.4 4.3 120 21.6
2006-07-18 10:19:13 51°19.925 2°37.344 134.1 7.9 140 20.8
2006-07-18 10:20:12 51°19.783 2°37.463 155.4 11.2 159 22
2006-07-18 10:21:13 51°19.591 2°37.562 160 12.2 163 20.9
2006-07-18 10:22:12 51°19.401 2°37.66 159.1 12.2 162 17.4
2006-07-18 10:23:13 51°19.206 2°37.768 157 12.2 160 18.2
2006-07-18 10:24:13 51°19.012 2°37.87 158 12.3 161 22
2006-07-18 10:25:13 51°18.818 2°37.974 158 12.3 160 24
2006-07-18 10:26:13 51°18.626 2°38.087 159.8 12.4 161 25
2006-07-18 10:27:13 51°18.431 2°38.193 157.2 12.3 159 25.2
2006-07-18 10:28:13 51°18.237 2°38.304 158.3 12.3 158 25.9
2006-07-18 10:29:13 51°18.045 2°38.401 160.2 12 162 25.8
2006-07-18 10:30:13 51°17.858 2°38.505 158.8 12.1 163 25.9
2006-07-18 10:31:12 51°17.668 2°38.591 159.5 12.1 163 25.9
2006-07-18 10:32:13 51°17.47 2°38.682 160.5 12.2 165 25.5
2006-07-18 10:33:13 51°17.275 2°38.774 158.6 12.2 162 22
2006-07-18 10:34:13 51°17.082 2°38.865 158.1 11.9 161 10
2006-07-18 10:35:12 51°16.9 2°38.95 163.3 11.8 167 8.9
2006-07-18 10:36:12 51°16.708 2°39.028 161.2 12 165 10.3
2006-07-18 10:37:13 51°16.512 2°39.119 159.2 12.2 162 12.3
2006-07-18 10:38:13 51°16.321 2°39.236 157.9 12.4 162 14.9
2006-07-18 10:39:13 51°16.123 2°39.339 156.2 12.5 159 17.7
2006-07-18 10:40:12 51°15.925 2°39.421 167.2 12.5 170 18.4
2006-07-18 10:41:12 51°15.724 2°39.489 165.4 12.4 168 18.6
2006-07-18 10:42:13 51°15.516 2°39.532 170.7 12.5 174 18.2
2006-07-18 10:43:12 51°15.313 2°39.571 171.4 12.4 176 17
2006-07-18 10:44:13 51°15.101 2°39.555 181.1 12.6 184 15.9
2006-07-18 10:45:13 51°14.891 2°39.536 181.9 12.7 185 14.2
2006-07-18 10:46:13 51°14.682 2°39.525 177.8 12.6 181 14.2
2006-07-18 10:47:12 51°14.476 2°39.504 178.2 12.5 181 13.1
2006-07-18 10:48:13 51°14.264 2°39.484 181.1 12.7 186 12.1
2006-07-18 10:49:10 51°14.066 2°39.463 173.5 12.3 176 12.9
2006-07-18 10:50:12 51°13.861 2°39.52 165.1 12 169 11.7
2006-07-18 10:51:12 51°13.676 2°39.635 152.9 12 157 13.2
2006-07-18 10:52:13 51°13.49 2°39.761 152.4 11.8 154 14.2
2006-07-18 10:53:12 51°13.335 2°39.936 139.4 11.7 144 13.3
2006-07-18 10:54:13 51°13.169 2°40.111 142 11.7 146 13.4
2006-07-18 10:55:13 51°13.041 2°40.322 111.7 10.9 113 12.5
2006-07-18 10:56:13 51°13.029 2°40.605 82.9 10.8 80 12
2006-07-18 10:57:13 51°13.079 2°40.883 77.9 10.9 77 12.5
2006-07-18 10:58:13 51°13.116 2°41.167 78.4 11.1 77 12.3
2006-07-18 10:59:13 51°13.155 2°41.452 78.2 11 77 12.1
2006-07-18 11:00:13 51°13.206 2°41.733 75.4 11 75 11.9
2006-07-18 11:01:13 51°13.241 2°42.018 78.6 11 77 11.3
2006-07-18 11:02:13 51°13.289 2°42.301 75.7 11.1 75 10.9
2006-07-18 11:03:12 51°13.323 2°42.584 80.3 11.1 79 10.4
2006-07-18 11:04:13 51°13.377 2°42.869 75 11 73 9.8
2006-07-18 11:05:13 51°13.412 2°43.154 80.3 11 79 9
2006-07-18 11:06:13 51°13.462 2°43.435 75.2 11 73 8.4
2006-07-18 11:07:13 51°13.517 2°43.71 74.3 10.9 72 7.8
2006-07-18 11:08:12 51°13.569 2°43.981 74.9 10.8 73 8.1
2006-07-18 11:09:12 51°13.631 2°44.251 71.1 10.7 70 9.1
2006-07-18 11:10:13 51°13.698 2°44.52 67.8 10.7 65 9.9
2006-07-18 11:11:13 51°13.778 2°44.773 68.8 10.7 67 10.4
2006-07-18 11:12:13 51°13.843 2°45.037 69.6 10.7 68 10.6
2006-07-18 11:13:13 51°13.922 2°45.291 64.7 10.8 62 10.6
2006-07-18 11:14:13 51°14.002 2°45.546 66.8 10.8 64 10.7
2006-07-18 11:15:13 51°14.066 2°45.814 71.7 10.8 70 10.4
2006-07-18 11:16:13 51°14.131 2°46.082 70 10.9 69 10.2
2006-07-18 11:17:13 51°14.188 2°46.354 73.4 10.8 72 9.6
2006-07-18 11:18:13 51°14.237 2°46.63 74.7 10.8 73 9.3
2006-07-18 11:19:13 51°14.287 2°46.904 80.1 10.8 80 8.9
2006-07-18 11:20:13 51°14.313 2°47.185 79.5 10.7 78 8.4
2006-07-18 11:21:13 51°14.358 2°47.46 80.8 10.8 82 9.2
2006-07-18 11:22:12 51°14.378 2°47.74 81.2 10.7 79 10
2006-07-18 11:23:13 51°14.421 2°48.021 77.5 10.7 78 10.5
2006-07-18 11:24:10 51°14.445 2°48.291 83.3 10.8 84 10.7
2006-07-18 11:25:13 51°14.479 2°48.586 79.4 10.8 80 10.9
2006-07-18 11:26:13 51°14.502 2°48.871 81.5 10.8 82 10.9
2006-07-18 11:27:13 51°14.526 2°49.155 81.6 10.8 82 10.9
2006-07-18 11:28:13 51°14.553 2°49.439 81.9 10.8 83 10.9
2006-07-18 11:29:13 51°14.587 2°49.719 76.3 10.3 76 10.8
2006-07-18 11:30:13 51°14.61 2°49.938 81.4 7.7 84 10.9
2006-07-18 11:31:13 51°14.615 2°50.134 89.8 7.4 94 10.8
2006-07-18 11:32:13 51°14.605 2°50.34 89.8 7.9 94 10.6
2006-07-18 11:33:13 51°14.599 2°50.55 89.8 7.9 94 10.3
2006-07-18 11:34:13 51°14.591 2°50.764 88.7 8.3 92 9.9
2006-07-18 11:35:13 51°14.583 2°50.984 88.6 8.3 92 9.4
2006-07-18 11:36:13 51°14.575 2°51.205 90 8.3 93 9.2
2006-07-18 11:37:13 51°14.567 2°51.426 90.1 8.4 93 8.9
2006-07-18 11:38:13 51°14.561 2°51.651 90.4 8.8 94 8.8
2006-07-18 11:39:12 51°14.571 2°51.881 82 8.9 84 8.7
2006-07-18 11:40:13 51°14.583 2°52.124 86.8 9.1 89 8.5
2006-07-18 11:41:13 51°14.595 2°52.364 82.7 9.1 85 8.3
2006-07-18 11:42:13 51°14.607 2°52.606 85.6 9.2 87 8.2
2006-07-18 11:43:14 51°14.617 2°52.869 87.4 10.5 90 8.1
2006-07-18 11:44:13 51°14.581 2°53.154 97.8 11.2 100 7.6
2006-07-18 11:45:13 51°14.546 2°53.445 96.8 11.1 99 7.6
2006-07-18 11:46:13 51°14.511 2°53.74 95.6 11.2 97 8.6
2006-07-18 11:47:13 51°14.483 2°54.031 98.1 11.2 102 8.4
2006-07-18 11:48:13 51°14.448 2°54.321 97.2 11.2 99 8.7
2006-07-18 11:49:13 51°14.421 2°54.615 95.8 11.3 98 9.5
2006-07-18 11:50:13 51°14.387 2°54.912 102 11.5 104 9
2006-07-18 11:51:14 51°14.316 2°55.178 123.8 10.3 124 9.3
2006-07-18 11:52:14 51°14.214 2°55.333 147.4 7.5 148 9.4
2006-07-18 11:53:14 51°14.113 2°55.424 156.4 6.8 156 9.4
2006-07-18 11:54:14 51°14.02 2°55.494 158.2 6.1 156 9.4
2006-07-18 11:55:14 51°13.926 2°55.566 157 6.5 155 9.4
2006-07-18 11:56:14 51°13.827 2°55.639 156.3 6.5 153 9.5
2006-07-18 11:57:14 51°13.742 2°55.731 140.8 5.8 139 9
2006-07-18 11:58:14 51°13.68 2°55.84 127.3 5.2 124 8.6
2006-07-18 11:59:14 51°13.636 2°55.947 125.1 4.5 123 8.3
2006-07-18 12:00:14 51°13.608 2°56.049 106.6 3.9 104 7.8
2006-07-18 12:01:14 51°13.602 2°56.097 109.8 0.3 97 5.2
2006-07-18 12:02:14 51°13.601 2°56.1 111.5 0.1 16 4.8
2006-07-18 12:03:13 51°13.602 2°56.1 123.7 0.1 1 4.7